Little Rock, Illinois
Current Conditions -  °F | °C
As of 3:52 AM on Monday 22 Dec 2014 (Local Time) from KARR Reporting Station
Haze Haze  
Wind Chill: -4°   Ceiling: 4800
Heat Index:   Visibility: 5mi
Dew Point: -3°   Wind: 7mph
Humidity: 82%   Direction: 120°ESE
Pressure: 29.95"   Gusts: NA
Location:  41.6798°N, 88.537°W
Report Text: KARR 220952Z AUTO 12006KT 5SM HZ BKN048 OVC060 00/M03 A2995 RMK AO2 SLP149 T00001028
Loading
Personal Weather Stations






























Interactive Weather Map New forecast layout! Learn more

10-Day Weather Forecast

Advertisements
Track Severe Weather on mobile